< < Back
Terminal Aerodrome Forecast


Current Version              Previous Versions:   1  2  3  4  5  6  7  8  9  

Terminal Aerodrome Forecast

087
FTUS42 KGSP 270535
TAFAND
TAF
KAND 270535Z 2706/2806 VRB02KT P6SM SCT070
     FM271500 18006KT P6SM SCT050
     FM280200 17003KT P6SM FEW060=

Latest METAR

953
SAUS70 KWBC 280800
MTRAND
METAR KAND 280756Z AUTO 00000KT 10SM CLR 19/15 A3012 RMK AO2 SLP190
T01940150


USA.gov is the U.S. government's official web portal to all federal, state and local government web resources and services.